OBBI/BAH METAR and TAF weather

Enter ICAO airport designator
Station Type Date Time Source
OBBI METAR 2019/06/27 04:00 UTC NOAA

OBBI 270400Z 29007KT CAVOK 38/15 Q0999 NOSIG


Station Type Date Time Source
OBBI Decoded METAR 2019/06/27 04:00 UTC NOAA

Bahrain International Airport , Bahrain (OBBI) 26-16N 050-39E 2M
Jun 27, 2019 - 12:00 AM EDT / 2019.06.27 0400 UTC
Wind: from the WNW (290 degrees) at 8 MPH (7 KT):0
Visibility: greater than 7 mile(s):0
Temperature: 100 F (38 C)
Heat index: 99.7 F (37.6 C):1
Dew Point: 59 F (15 C)
Relative Humidity: 25%
Pressure (altimeter): 29.50 in. Hg (0999 hPa)
ob: OBBI 270400Z 29007KT CAVOK 38/15 Q0999 NOSIG
cycle: 4

Station Type Date Time Source
OBBI TAF 2019/06/26 18:57 UTC NOAA

TAF OBBI 261700Z 2618/2800 VRB05KT CAVOK
BECMG 2706/2708 35010KT
BECMG 2720/2722 VRB05KT

Example: see airport list